Time;durP1;ratioP1;P1;durP2;ratioP2;P2;SDS_P1;SDS_P2;PMS_P1;PMS_P2;Temp;Humidity;BMP_temperature;BMP_pressure;BME280_temperature;BME280_humidity;BME280_pressure;Samples;Min_cycle;Max_cycle;Signal;HPM_P1;HPM_P2
2022/03/08 00:01:21;;;;;;;37.72;23.35;;;;;;;;;;4996440;28;20820;-70
2022/03/08 00:03:47;;;;;;;38.25;22.77;;;;;;;;;;4996471;28;20170;-70
2022/03/08 00:06:13;;;;;;;31.83;22.02;;;;;;;;;;4996279;28;20292;-69
2022/03/08 00:08:40;;;;;;;31.55;22.10;;;;;;;;;;4996245;28;20512;-69
2022/03/08 00:11:06;;;;;;;29.38;21.63;;;;;;;;;;4996180;28;20174;-69
2022/03/08 00:13:32;;;;;;;27.00;20.95;;;;;;;;;;4996051;28;20174;-69
2022/03/08 00:15:58;;;;;;;30.70;21.80;;;;;;;;;;4996056;28;20318;-68
2022/03/08 00:18:24;;;;;;;31.85;22.15;;;;;;;;;;4996137;28;20410;-68
2022/03/08 00:20:50;;;;;;;29.20;21.73;;;;;;;;;;4978604;28;20187;-69
2022/03/08 00:23:16;;;;;;;26.65;21.10;;;;;;;;;;4996121;28;20406;-68
2022/03/08 00:25:42;;;;;;;31.13;21.30;;;;;;;;;;4995878;28;20265;-68
2022/03/08 00:28:09;;;;;;;29.13;22.15;;;;;;;;;;4995896;28;20414;-70
2022/03/08 00:30:35;;;;;;;29.55;22.85;;;;;;;;;;4995844;28;20661;-69
2022/03/08 00:33:01;;;;;;;28.30;21.70;;;;;;;;;;4995790;28;20186;-69
2022/03/08 00:35:27;;;;;;;29.33;22.08;;;;;;;;;;4995627;28;20206;-69
2022/03/08 00:37:55;;;;;;;28.73;21.02;;;;;;;;;;4995754;28;20163;-69
2022/03/08 00:40:21;;;;;;;29.48;21.65;;;;;;;;;;4995675;28;20178;-68
2022/03/08 00:42:47;;;;;;;32.13;22.80;;;;;;;;;;4995619;28;20167;-69
2022/03/08 00:45:14;;;;;;;30.02;21.42;;;;;;;;;;4995569;28;20174;-69
2022/03/08 00:47:41;;;;;;;25.70;19.55;;;;;;;;;;4978104;28;20178;-68
2022/03/08 00:50:08;;;;;;;26.98;20.63;;;;;;;;;;4995476;28;20170;-69
2022/03/08 00:52:34;;;;;;;26.20;20.88;;;;;;;;;;4995404;28;20536;-68
2022/03/08 00:55:00;;;;;;;28.13;21.13;;;;;;;;;;4994493;28;20744;-68
2022/03/08 00:57:26;;;;;;;33.55;22.30;;;;;;;;;;4995420;28;20195;-68
2022/03/08 00:59:52;;;;;;;31.30;21.40;;;;;;;;;;4977911;28;20202;-69
2022/03/08 01:02:18;;;;;;;32.80;21.65;;;;;;;;;;4977799;28;20418;-69
2022/03/08 01:04:44;;;;;;;29.00;22.50;;;;;;;;;;4977733;28;20188;-69
2022/03/08 01:07:10;;;;;;;29.67;21.93;;;;;;;;;;4994944;28;20472;-69
2022/03/08 01:09:36;;;;;;;27.23;21.27;;;;;;;;;;4994958;28;20920;-68
2022/03/08 01:12:03;;;;;;;29.73;21.50;;;;;;;;;;4995071;28;20714;-69
2022/03/08 01:14:29;;;;;;;30.90;21.77;;;;;;;;;;4977460;28;20308;-68
2022/03/08 01:16:55;;;;;;;30.92;21.60;;;;;;;;;;4995197;28;20317;-68
2022/03/08 01:19:21;;;;;;;26.30;20.37;;;;;;;;;;4977492;28;20324;-68
2022/03/08 01:21:47;;;;;;;32.78;22.25;;;;;;;;;;4977460;28;20414;-67
2022/03/08 01:24:13;;;;;;;30.80;22.50;;;;;;;;;;4977432;28;20182;-67
2022/03/08 01:26:39;;;;;;;28.53;21.40;;;;;;;;;;4994824;28;20430;-69
2022/03/08 01:29:05;;;;;;;31.13;20.87;;;;;;;;;;4994800;28;20445;-68
2022/03/08 01:31:30;;;;;;;28.70;21.20;;;;;;;;;;4994834;28;20402;-68
2022/03/08 01:33:57;;;;;;;31.30;21.50;;;;;;;;;;4994583;28;20870;-68
2022/03/08 01:36:23;;;;;;;31.67;21.75;;;;;;;;;;4994609;28;20509;-68
2022/03/08 01:38:49;;;;;;;32.85;21.77;;;;;;;;;;4994835;28;20553;-67
2022/03/08 01:41:15;;;;;;;32.80;22.15;;;;;;;;;;4994481;28;20214;-68
2022/03/08 01:43:41;;;;;;;31.95;21.80;;;;;;;;;;4994549;28;20173;-69
2022/03/08 01:46:07;;;;;;;32.63;21.85;;;;;;;;;;4994440;28;20173;-68
2022/03/08 01:48:34;;;;;;;32.35;21.90;;;;;;;;;;4994505;28;20174;-67
2022/03/08 01:51:00;;;;;;;38.75;21.40;;;;;;;;;;4994470;28;20171;-68
2022/03/08 01:53:26;;;;;;;32.92;22.27;;;;;;;;;;4994386;28;20174;-68
2022/03/08 01:55:52;;;;;;;29.38;20.70;;;;;;;;;;4994229;28;20226;-68
2022/03/08 01:58:18;;;;;;;33.63;21.35;;;;;;;;;;4994279;28;20190;-68
2022/03/08 02:00:44;;;;;;;30.27;21.17;;;;;;;;;;4994270;28;20170;-68
2022/03/08 02:03:10;;;;;;;33.93;20.50;;;;;;;;;;4994253;28;20167;-68
2022/03/08 02:05:36;;;;;;;31.13;20.65;;;;;;;;;;4993906;28;20519;-68
2022/03/08 02:08:02;;;;;;;38.25;21.60;;;;;;;;;;4994213;28;20638;-68
2022/03/08 02:10:28;;;;;;;32.88;20.60;;;;;;;;;;4994149;28;20224;-68
2022/03/08 02:12:54;;;;;;;33.58;20.85;;;;;;;;;;4994231;28;20174;-68
2022/03/08 02:15:20;;;;;;;32.67;21.38;;;;;;;;;;4994033;28;20213;-68
2022/03/08 02:17:47;;;;;;;31.05;21.52;;;;;;;;;;4994073;28;20265;-67
2022/03/08 02:20:13;;;;;;;30.48;22.23;;;;;;;;;;4994055;28;20166;-69
2022/03/08 02:22:40;;;;;;;30.95;21.58;;;;;;;;;;4994051;28;20524;-68
2022/03/08 02:25:06;;;;;;;33.17;20.35;;;;;;;;;;4993953;28;20591;-68
2022/03/08 02:27:32;;;;;;;34.42;20.90;;;;;;;;;;4993977;28;20171;-69
2022/03/08 02:29:59;;;;;;;32.73;20.90;;;;;;;;;;4993984;28;20173;-68
2022/03/08 02:32:25;;;;;;;32.58;22.58;;;;;;;;;;4993256;28;20408;-68
2022/03/08 02:34:51;;;;;;;34.43;21.57;;;;;;;;;;4976442;28;21043;-69
2022/03/08 02:37:17;;;;;;;31.47;21.27;;;;;;;;;;4993887;28;20843;-68
2022/03/08 02:39:44;;;;;;;34.90;21.30;;;;;;;;;;4993775;28;20406;-68
2022/03/08 02:42:10;;;;;;;33.30;21.40;;;;;;;;;;4994097;28;20257;-68
2022/03/08 02:44:36;;;;;;;38.92;21.80;;;;;;;;;;4993779;28;20166;-69
2022/03/08 02:47:03;;;;;;;38.22;22.55;;;;;;;;;;4993804;28;20512;-68
2022/03/08 02:49:29;;;;;;;36.05;21.75;;;;;;;;;;4993722;28;20190;-67
2022/03/08 02:51:56;;;;;;;31.67;21.38;;;;;;;;;;4993820;28;20191;-67
2022/03/08 02:54:22;;;;;;;32.17;21.42;;;;;;;;;;4993706;28;20198;-69
2022/03/08 02:56:48;;;;;;;33.37;22.17;;;;;;;;;;4993655;28;20529;-67
2022/03/08 02:59:19;;;;;;;28.00;20.40;;;;;;;;;;4993805;28;20402;-67
2022/03/08 03:01:45;;;;;;;33.70;21.63;;;;;;;;;;4993690;28;20817;-69
2022/03/08 03:04:11;;;;;;;34.93;22.03;;;;;;;;;;4993715;28;20171;-68
2022/03/08 03:06:38;;;;;;;31.27;21.33;;;;;;;;;;4993495;28;20477;-67
2022/03/08 03:09:04;;;;;;;28.95;21.25;;;;;;;;;;4976181;28;20501;-69
2022/03/08 03:11:30;;;;;;;29.65;19.40;;;;;;;;;;4993620;28;20225;-67
2022/03/08 03:13:56;;;;;;;36.07;20.80;;;;;;;;;;4976157;28;20645;-68
2022/03/08 03:16:22;;;;;;;38.47;21.52;;;;;;;;;;4993655;28;20472;-69
2022/03/08 03:18:48;;;;;;;30.25;20.60;;;;;;;;;;4995472;28;20174;-68
2022/03/08 03:21:14;;;;;;;30.47;21.43;;;;;;;;;;4997156;28;20170;-68
2022/03/08 03:23:40;;;;;;;36.45;21.73;;;;;;;;;;4997188;28;20872;-68
2022/03/08 03:26:06;;;;;;;33.00;21.43;;;;;;;;;;4996955;28;20186;-68
2022/03/08 03:28:32;;;;;;;33.77;22.23;;;;;;;;;;4997061;28;20398;-68
2022/03/08 03:30:58;;;;;;;32.77;20.63;;;;;;;;;;4996948;28;20480;-69
2022/03/08 03:33:24;;;;;;;32.90;21.95;;;;;;;;;;4996855;28;20406;-68
2022/03/08 03:35:50;;;;;;;30.63;21.27;;;;;;;;;;4996805;28;20293;-69
2022/03/08 03:38:16;;;;;;;33.53;20.43;;;;;;;;;;4979370;28;20426;-68
2022/03/08 03:40:42;;;;;;;33.30;21.08;;;;;;;;;;4996728;28;20924;-68
2022/03/08 03:43:08;;;;;;;31.77;21.23;;;;;;;;;;4996741;28;20163;-68
2022/03/08 03:45:34;;;;;;;36.78;20.92;;;;;;;;;;4996705;28;20433;-69
2022/03/08 03:48:00;;;;;;;35.83;21.80;;;;;;;;;;4996702;28;20167;-68
2022/03/08 03:50:26;;;;;;;33.40;21.77;;;;;;;;;;4996559;28;20932;-69
2022/03/08 03:52:52;;;;;;;31.00;21.17;;;;;;;;;;4996523;28;20412;-69
2022/03/08 03:55:18;;;;;;;30.85;20.48;;;;;;;;;;4996389;28;20647;-67
2022/03/08 03:57:44;;;;;;;33.58;20.30;;;;;;;;;;4978980;28;20205;-68
2022/03/08 04:00:12;;;;;;;31.70;22.07;;;;;;;;;;4979010;28;20634;-69
2022/03/08 04:02:38;;;;;;;32.63;21.80;;;;;;;;;;4996402;28;20413;-67
2022/03/08 04:05:04;;;;;;;34.58;22.13;;;;;;;;;;4996141;28;20250;-68
2022/03/08 04:07:30;;;;;;;30.38;21.20;;;;;;;;;;4978866;28;20245;-67
2022/03/08 04:09:56;;;;;;;35.28;21.92;;;;;;;;;;4978736;28;20535;-67
2022/03/08 04:12:22;;;;;;;35.90;22.30;;;;;;;;;;4996203;28;20226;-68
2022/03/08 04:14:48;;;;;;;32.17;21.57;;;;;;;;;;4996043;28;20822;-69
2022/03/08 04:17:14;;;;;;;32.53;21.13;;;;;;;;;;4996098;28;20436;-67
2022/03/08 04:19:42;;;;;;;34.83;21.53;;;;;;;;;;4996135;28;20414;-68
2022/03/08 04:22:08;;;;;;;36.15;21.40;;;;;;;;;;4978534;28;20422;-68
2022/03/08 04:24:34;;;;;;;31.25;21.02;;;;;;;;;;4995992;28;20163;-68
2022/03/08 04:27:00;;;;;;;32.50;21.38;;;;;;;;;;4995906;28;20256;-68
2022/03/08 04:29:26;;;;;;;37.30;20.40;;;;;;;;;;4994868;28;20627;-68
2022/03/08 04:31:52;;;;;;;33.35;21.92;;;;;;;;;;4995788;28;20769;-68
2022/03/08 04:34:18;;;;;;;38.25;20.98;;;;;;;;;;4995685;28;20206;-69
2022/03/08 04:36:44;;;;;;;32.03;21.25;;;;;;;;;;4995777;28;20159;-68
2022/03/08 04:39:10;;;;;;;35.47;21.42;;;;;;;;;;4995726;28;20170;-68
2022/03/08 04:41:36;;;;;;;37.13;22.55;;;;;;;;;;4995579;28;20233;-68
2022/03/08 04:44:02;;;;;;;35.70;22.80;;;;;;;;;;4995601;28;20174;-68
2022/03/08 04:46:28;;;;;;;33.37;22.00;;;;;;;;;;4995567;28;20418;-69
2022/03/08 04:48:55;;;;;;;36.17;22.02;;;;;;;;;;4995441;28;20464;-68
2022/03/08 04:51:21;;;;;;;33.25;21.00;;;;;;;;;;4995786;28;20167;-69
2022/03/08 04:53:47;;;;;;;35.80;21.00;;;;;;;;;;4995366;28;20218;-67
2022/03/08 04:56:13;;;;;;;38.30;21.03;;;;;;;;;;4995443;28;20186;-68
2022/03/08 04:58:38;;;;;;;40.40;23.20;;;;;;;;;;4995331;28;20496;-68
2022/03/08 05:01:05;;;;;;;32.70;20.77;;;;;;;;;;4995318;28;20986;-69
2022/03/08 05:03:30;;;;;;;35.95;22.45;;;;;;;;;;4995338;28;20488;-68
2022/03/08 05:05:56;;;;;;;40.33;21.63;;;;;;;;;;4995112;28;20281;-68
2022/03/08 05:08:23;;;;;;;37.45;22.42;;;;;;;;;;4978134;28;20429;-69
2022/03/08 05:10:49;;;;;;;36.08;21.77;;;;;;;;;;4995514;28;20178;-69
2022/03/08 05:13:15;;;;;;;32.33;21.67;;;;;;;;;;4995281;28;20167;-69
2022/03/08 05:15:41;;;;;;;39.55;23.60;;;;;;;;;;4995169;28;20209;-69
2022/03/08 05:18:07;;;;;;;34.63;21.58;;;;;;;;;;4995200;28;20177;-69
2022/03/08 05:20:33;;;;;;;36.53;22.63;;;;;;;;;;4995173;28;20605;-68
2022/03/08 05:23:00;;;;;;;38.28;21.17;;;;;;;;;;4994922;28;20175;-69
2022/03/08 05:25:27;;;;;;;40.10;21.88;;;;;;;;;;4994953;28;20179;-69
2022/03/08 05:27:53;;;;;;;34.95;20.58;;;;;;;;;;4994945;28;20197;-69
2022/03/08 05:30:19;;;;;;;34.08;22.40;;;;;;;;;;4995098;28;20202;-69
2022/03/08 05:32:45;;;;;;;54.23;23.10;;;;;;;;;;4994671;28;20205;-68
2022/03/08 05:35:11;;;;;;;36.87;22.17;;;;;;;;;;4977246;28;20485;-69
2022/03/08 05:37:37;;;;;;;35.65;22.98;;;;;;;;;;4994695;28;20435;-68
2022/03/08 05:40:05;;;;;;;33.13;20.48;;;;;;;;;;4994595;28;20182;-69
2022/03/08 05:42:31;;;;;;;35.83;21.80;;;;;;;;;;4994182;28;20174;-69
2022/03/08 05:44:57;;;;;;;33.58;21.52;;;;;;;;;;4994521;28;20175;-69
2022/03/08 05:47:23;;;;;;;38.05;20.85;;;;;;;;;;4994484;28;20167;-69
2022/03/08 05:49:49;;;;;;;35.85;20.90;;;;;;;;;;4994461;28;20626;-69
2022/03/08 05:52:15;;;;;;;41.10;22.23;;;;;;;;;;4994457;28;20178;-69
2022/03/08 05:54:41;;;;;;;37.03;21.30;;;;;;;;;;4994166;28;21010;-69
2022/03/08 05:57:07;;;;;;;37.80;22.47;;;;;;;;;;4994425;28;20225;-68
2022/03/08 05:59:33;;;;;;;41.65;22.83;;;;;;;;;;4994379;28;20490;-69
2022/03/08 06:01:59;;;;;;;37.55;21.55;;;;;;;;;;4994408;28;20631;-69
2022/03/08 06:04:25;;;;;;;39.83;22.70;;;;;;;;;;4994265;28;20174;-69
2022/03/08 06:06:52;;;;;;;39.72;22.98;;;;;;;;;;4994117;28;20473;-69
2022/03/08 06:09:18;;;;;;;42.00;22.42;;;;;;;;;;4994251;28;20191;-69
2022/03/08 06:11:44;;;;;;;36.07;22.37;;;;;;;;;;4994089;28;20185;-68
2022/03/08 06:14:10;;;;;;;34.70;22.30;;;;;;;;;;4994040;28;20511;-68
2022/03/08 06:16:36;;;;;;;42.67;24.90;;;;;;;;;;4994329;28;20450;-69
2022/03/08 06:19:02;;;;;;;44.40;22.57;;;;;;;;;;4994101;28;20646;-68
2022/03/08 06:21:28;;;;;;;38.17;24.08;;;;;;;;;;4994005;28;20911;-69
2022/03/08 06:23:54;;;;;;;50.30;25.95;;;;;;;;;;4993998;28;20170;-69
2022/03/08 06:26:20;;;;;;;50.33;25.93;;;;;;;;;;4993976;28;20186;-68
2022/03/08 06:28:46;;;;;;;39.43;23.73;;;;;;;;;;4976529;28;20417;-69
2022/03/08 06:31:12;;;;;;;42.33;24.43;;;;;;;;;;4993918;28;20770;-69
2022/03/08 06:33:38;;;;;;;41.25;24.58;;;;;;;;;;4993958;28;20424;-68
2022/03/08 06:36:04;;;;;;;38.35;23.45;;;;;;;;;;4993936;28;20210;-69
2022/03/08 06:38:30;;;;;;;39.35;23.88;;;;;;;;;;4993867;28;20171;-69
2022/03/08 06:40:56;;;;;;;44.83;24.33;;;;;;;;;;4993918;28;20185;-68
2022/03/08 06:43:22;;;;;;;40.90;24.00;;;;;;;;;;4993853;28;20167;-67
2022/03/08 06:45:48;;;;;;;44.92;24.65;;;;;;;;;;4993874;28;20819;-67
2022/03/08 06:48:14;;;;;;;39.23;24.10;;;;;;;;;;4993871;28;20171;-67
2022/03/08 06:50:40;;;;;;;35.40;23.57;;;;;;;;;;4993721;28;20406;-67
2022/03/08 06:53:06;;;;;;;39.58;23.92;;;;;;;;;;4994744;28;20448;-67
2022/03/08 06:55:32;;;;;;;43.08;24.55;;;;;;;;;;4997380;28;20249;-67
2022/03/08 06:57:58;;;;;;;38.13;24.00;;;;;;;;;;4980086;28;20217;-67
2022/03/08 07:00:24;;;;;;;36.25;24.17;;;;;;;;;;4980147;28;20184;-67
2022/03/08 07:02:50;;;;;;;39.13;23.97;;;;;;;;;;4997499;28;20253;-67
2022/03/08 07:05:16;;;;;;;38.13;23.40;;;;;;;;;;4997307;28;20410;-68
2022/03/08 07:07:42;;;;;;;34.97;23.37;;;;;;;;;;4997418;28;20438;-70
2022/03/08 07:10:08;;;;;;;36.47;22.30;;;;;;;;;;4997641;28;20429;-68
2022/03/08 07:12:34;;;;;;;55.78;33.50;;;;;;;;;;4979781;28;20428;-73
2022/03/08 07:15:01;;;;;;;62.80;35.30;;;;;;;;;;4997151;28;20566;-72
2022/03/08 07:17:27;;;;;;;40.83;24.20;;;;;;;;;;4997399;28;20408;-72
2022/03/08 07:19:53;;;;;;;36.77;23.67;;;;;;;;;;4997190;28;20249;-70
2022/03/08 07:22:19;;;;;;;43.03;25.80;;;;;;;;;;4997075;28;20414;-72
2022/03/08 07:24:45;;;;;;;39.60;25.75;;;;;;;;;;4997296;28;20401;-68
2022/03/08 07:27:11;;;;;;;51.78;27.92;;;;;;;;;;4997204;28;20181;-68
2022/03/08 07:29:37;;;;;;;38.90;24.73;;;;;;;;;;4997252;28;20179;-70
2022/03/08 07:32:03;;;;;;;42.10;25.88;;;;;;;;;;4996966;28;20610;-69
2022/03/08 07:34:29;;;;;;;37.22;25.33;;;;;;;;;;4996843;28;20257;-71
2022/03/08 07:36:55;;;;;;;91.80;50.70;;;;;;;;;;4996879;28;20578;-70
2022/03/08 07:39:21;;;;;;;137.70;73.47;;;;;;;;;;4996765;28;20414;-68
2022/03/08 07:41:47;;;;;;;90.45;51.42;;;;;;;;;;4979260;28;20425;-69
2022/03/08 07:44:13;;;;;;;54.80;33.53;;;;;;;;;;4996746;28;20277;-69
2022/03/08 07:46:39;;;;;;;43.17;29.05;;;;;;;;;;4996755;28;20406;-68
2022/03/08 07:49:05;;;;;;;40.78;25.15;;;;;;;;;;4996881;28;20174;-68
2022/03/08 07:51:31;;;;;;;44.50;25.27;;;;;;;;;;4996758;28;20171;-69
2022/03/08 07:53:59;;;;;;;39.58;25.58;;;;;;;;;;4978975;28;20445;-68
2022/03/08 07:56:25;;;;;;;44.38;25.77;;;;;;;;;;4996522;28;20206;-68
2022/03/08 07:58:52;;;;;;;38.85;25.83;;;;;;;;;;4996676;28;20197;-69
2022/03/08 08:01:18;;;;;;;39.70;25.58;;;;;;;;;;4996412;28;20221;-69
2022/03/08 08:03:44;;;;;;;39.08;24.70;;;;;;;;;;4996041;28;20174;-69
2022/03/08 08:06:10;;;;;;;40.95;25.00;;;;;;;;;;4996108;28;20318;-68
2022/03/08 08:08:36;;;;;;;92.80;52.67;;;;;;;;;;4996259;28;20206;-67
2022/03/08 08:11:02;;;;;;;42.20;28.33;;;;;;;;;;4996175;28;20661;-65
2022/03/08 08:13:28;;;;;;;54.72;33.60;;;;;;;;;;4996109;28;20406;-68
2022/03/08 08:15:54;;;;;;;37.97;26.17;;;;;;;;;;4996021;28;20293;-70
2022/03/08 08:18:20;;;;;;;39.23;25.40;;;;;;;;;;4996157;28;20402;-68
2022/03/08 08:20:46;;;;;;;36.13;25.33;;;;;;;;;;4996079;28;20406;-68
2022/03/08 08:23:12;;;;;;;40.08;27.05;;;;;;;;;;4995888;28;20198;-69
2022/03/08 08:25:38;;;;;;;40.15;27.05;;;;;;;;;;4995930;28;20175;-67
2022/03/08 08:28:06;;;;;;;38.13;25.13;;;;;;;;;;4995861;28;20178;-68
2022/03/08 08:30:32;;;;;;;36.60;25.67;;;;;;;;;;4978379;28;20434;-69
2022/03/08 08:32:58;;;;;;;39.93;26.43;;;;;;;;;;4995892;28;20596;-68
2022/03/08 08:35:24;;;;;;;43.35;26.50;;;;;;;;;;4995846;28;20480;-69
2022/03/08 08:37:49;;;;;;;38.80;27.33;;;;;;;;;;4995703;28;20175;-69
2022/03/08 08:40:15;;;;;;;34.50;24.90;;;;;;;;;;4995893;28;20449;-70
2022/03/08 08:42:42;;;;;;;34.85;24.55;;;;;;;;;;4995630;28;20568;-70
2022/03/08 08:45:08;;;;;;;44.50;27.95;;;;;;;;;;4978134;28;20182;-70
2022/03/08 08:47:34;;;;;;;39.20;26.00;;;;;;;;;;4995630;28;20170;-71
2022/03/08 08:50:00;;;;;;;41.77;27.57;;;;;;;;;;4995595;28;20158;-70
2022/03/08 08:52:26;;;;;;;40.30;28.10;;;;;;;;;;4995423;28;20409;-71
2022/03/08 08:54:52;;;;;;;38.47;27.20;;;;;;;;;;4995329;28;20480;-71
2022/03/08 08:57:18;;;;;;;39.63;26.20;;;;;;;;;;4995300;28;20414;-71
2022/03/08 08:59:44;;;;;;;38.67;27.55;;;;;;;;;;4995255;28;20421;-69
2022/03/08 09:02:10;;;;;;;35.00;26.77;;;;;;;;;;4995247;28;20167;-69
2022/03/08 09:04:36;;;;;;;58.87;38.40;;;;;;;;;;4995177;28;20464;-70
2022/03/08 09:07:02;;;;;;;46.53;26.58;;;;;;;;;;4995079;28;20496;-70
2022/03/08 09:09:28;;;;;;;37.03;24.83;;;;;;;;;;4995080;28;20171;-70
2022/03/08 09:11:54;;;;;;;38.67;26.13;;;;;;;;;;4995003;28;20681;-70
2022/03/08 09:14:20;;;;;;;36.73;26.30;;;;;;;;;;4995038;28;20557;-66
2022/03/08 09:16:46;;;;;;;34.63;25.90;;;;;;;;;;4994299;28;20540;-68
2022/03/08 09:19:12;;;;;;;37.40;26.30;;;;;;;;;;4994969;28;20926;-70
2022/03/08 09:21:38;;;;;;;38.35;27.33;;;;;;;;;;4994905;28;20413;-68
2022/03/08 09:24:05;;;;;;;45.28;28.63;;;;;;;;;;4994810;28;20174;-66
2022/03/08 09:26:31;;;;;;;42.30;26.67;;;;;;;;;;4994753;28;20186;-73
2022/03/08 09:28:57;;;;;;;38.35;27.15;;;;;;;;;;4994847;28;20174;-70
2022/03/08 09:31:23;;;;;;;41.10;27.75;;;;;;;;;;4994802;28;20166;-69
2022/03/08 09:33:50;;;;;;;38.72;27.95;;;;;;;;;;4994705;28;20166;-70
2022/03/08 09:36:16;;;;;;;40.65;28.10;;;;;;;;;;4977143;28;20708;-70
2022/03/08 09:38:42;;;;;;;37.87;27.20;;;;;;;;;;4977255;28;20186;-73
2022/03/08 09:41:08;;;;;;;35.92;27.00;;;;;;;;;;4994544;28;20980;-65
2022/03/08 09:43:37;;;;;;;36.23;26.00;;;;;;;;;;4994523;28;20651;-69
2022/03/08 09:46:03;;;;;;;41.13;27.08;;;;;;;;;;4977071;28;20487;-68
2022/03/08 09:48:29;;;;;;;39.63;28.17;;;;;;;;;;4994305;28;20266;-69
2022/03/08 09:50:58;;;;;;;40.93;27.00;;;;;;;;;;4994710;28;20408;-68
2022/03/08 09:53:24;;;;;;;36.03;25.23;;;;;;;;;;4994332;28;20461;-69
2022/03/08 09:55:50;;;;;;;30.53;24.77;;;;;;;;;;4994261;28;20447;-69
2022/03/08 09:58:20;;;;;;;33.33;26.40;;;;;;;;;;4994307;28;20414;-68
2022/03/08 10:00:46;;;;;;;35.00;27.03;;;;;;;;;;4994437;28;20393;-67
2022/03/08 10:03:12;;;;;;;34.17;25.50;;;;;;;;;;4994241;28;20900;-68
2022/03/08 10:05:43;;;;;;;37.43;27.27;;;;;;;;;;4993882;28;20552;-66
2022/03/08 10:08:19;;;;;;;33.10;26.77;;;;;;;;;;4994154;28;20384;-67
2022/03/08 10:10:58;;;;;;;32.37;26.47;;;;;;;;;;4994334;28;20417;-68
2022/03/08 10:13:26;;;;;;;35.70;26.30;;;;;;;;;;4993980;28;20420;-67
2022/03/08 10:16:11;;;;;;;32.83;26.93;;;;;;;;;;4993909;28;21039;-67
2022/03/08 10:18:39;;;;;;;33.80;26.90;;;;;;;;;;4994072;28;20404;-66
2022/03/08 10:21:23;;;;;;;30.63;26.23;;;;;;;;;;4994026;28;20500;-67
2022/03/08 10:23:49;;;;;;;39.50;28.30;;;;;;;;;;4994025;28;20401;-67
2022/03/08 10:26:16;;;;;;;35.60;26.70;;;;;;;;;;4993960;28;20425;-67
2022/03/08 10:28:45;;;;;;;30.23;25.97;;;;;;;;;;4997668;28;20924;-66
2022/03/08 10:31:13;;;;;;;35.30;28.40;;;;;;;;;;4980617;28;20417;-67
2022/03/08 10:33:39;;;;;;;43.07;33.93;;;;;;;;;;4998056;28;20492;-67
2022/03/08 10:36:12;;;;;;;38.87;30.70;;;;;;;;;;4997937;28;20473;-67
2022/03/08 10:38:39;;;;;;;32.60;28.00;;;;;;;;;;4997817;28;20413;-67
2022/03/08 10:41:18;;;;;;;35.97;28.67;;;;;;;;;;4997914;28;20422;-67
2022/03/08 10:43:49;;;;;;;43.13;30.50;;;;;;;;;;4980876;28;20421;-67
2022/03/08 10:46:18;;;;;;;32.33;28.83;;;;;;;;;;4997832;28;20409;-68
2022/03/08 10:48:46;;;;;;;34.63;30.90;;;;;;;;;;4997756;28;20457;-68
2022/03/08 10:51:14;;;;;;;32.43;29.10;;;;;;;;;;4997690;28;20503;-67
2022/03/08 10:53:40;;;;;;;35.53;29.63;;;;;;;;;;4997512;28;20410;-67
2022/03/08 10:56:08;;;;;;;35.47;30.83;;;;;;;;;;4997517;28;20481;-67
2022/03/08 10:58:34;;;;;;;32.80;29.60;;;;;;;;;;4997607;28;20819;-68
2022/03/08 11:01:01;;;;;;;33.30;28.80;;;;;;;;;;4997496;28;20900;-68
2022/03/08 11:03:28;;;;;;;33.30;29.80;;;;;;;;;;4997793;28;20474;-67
2022/03/08 11:05:55;;;;;;;35.77;31.60;;;;;;;;;;4997224;28;20484;-67
2022/03/08 11:08:22;;;;;;;36.03;31.23;;;;;;;;;;4997668;28;20590;-67
2022/03/08 11:10:48;;;;;;;49.33;29.33;;;;;;;;;;4997309;28;20843;-68
2022/03/08 11:13:15;;;;;;;34.23;30.50;;;;;;;;;;4997379;28;20412;-67
2022/03/08 11:15:43;;;;;;;35.93;32.13;;;;;;;;;;4997159;28;21008;-68
2022/03/08 11:18:10;;;;;;;35.43;29.47;;;;;;;;;;4997536;28;20412;-68
2022/03/08 11:20:37;;;;;;;57.23;30.83;;;;;;;;;;4997176;28;20496;-66
2022/03/08 11:23:04;;;;;;;33.13;29.63;;;;;;;;;;4997096;28;20440;-69
2022/03/08 11:25:34;;;;;;;31.70;28.50;;;;;;;;;;4979615;28;20433;-68
2022/03/08 11:28:02;;;;;;;34.67;31.17;;;;;;;;;;4997306;28;20417;-69
2022/03/08 11:30:29;;;;;;;37.13;30.73;;;;;;;;;;4979527;28;20430;-68
2022/03/08 11:33:14;;;;;;;34.60;31.00;;;;;;;;;;4996956;28;20418;-69
2022/03/08 11:35:58;;;;;;;33.07;29.63;;;;;;;;;;4996915;28;20801;-68
2022/03/08 11:38:25;;;;;;;39.30;33.13;;;;;;;;;;4996402;28;20874;-69
2022/03/08 11:40:53;;;;;;;34.07;30.47;;;;;;;;;;4996673;28;20430;-68
2022/03/08 11:43:19;;;;;;;32.00;28.73;;;;;;;;;;4996772;28;20402;-68
2022/03/08 11:45:48;;;;;;;31.83;28.53;;;;;;;;;;4979286;28;20494;-69
2022/03/08 11:48:18;;;;;;;34.83;29.87;;;;;;;;;;4996934;28;20412;-68
2022/03/08 11:50:44;;;;;;;34.80;31.07;;;;;;;;;;4996614;28;20516;-68
2022/03/08 11:53:14;;;;;;;34.20;30.77;;;;;;;;;;4996478;28;20410;-68
2022/03/08 11:55:43;;;;;;;31.30;28.17;;;;;;;;;;4996010;28;20486;-68
2022/03/08 11:58:14;;;;;;;37.53;29.30;;;;;;;;;;4995922;28;20407;-67
2022/03/08 12:00:44;;;;;;;36.13;29.60;;;;;;;;;;4996518;28;20442;-68
2022/03/08 12:03:13;;;;;;;37.27;29.73;;;;;;;;;;4996471;28;20400;-68
2022/03/08 12:05:43;;;;;;;35.60;30.83;;;;;;;;;;4996129;28;20471;-68
2022/03/08 12:08:25;;;;;;;37.30;30.00;;;;;;;;;;4996586;28;20412;-69
2022/03/08 12:10:58;;;;;;;32.97;29.53;;;;;;;;;;4996020;28;20415;-68
2022/03/08 12:13:27;;;;;;;34.37;30.70;;;;;;;;;;4995869;28;20470;-67
2022/03/08 12:16:08;;;;;;;32.27;28.87;;;;;;;;;;4996553;28;20504;-67
2022/03/08 12:19:03;;;;;;;32.03;28.67;;;;;;;;;;4996282;28;20403;-68
2022/03/08 12:21:33;;;;;;;31.73;27.70;;;;;;;;;;4979426;28;20427;-68
2022/03/08 12:24:02;;;;;;;32.53;29.27;;;;;;;;;;4995894;28;20444;-68
2022/03/08 12:26:28;;;;;;;34.27;28.00;;;;;;;;;;4995905;28;20968;-68
2022/03/08 12:29:13;;;;;;;32.80;29.47;;;;;;;;;;4995769;28;20405;-67
2022/03/08 12:32:09;;;;;;;32.53;29.00;;;;;;;;;;4996024;28;20896;-67
2022/03/08 12:34:45;;;;;;;30.90;27.80;;;;;;;;;;4979072;28;20495;-67
2022/03/08 12:37:13;;;;;;;32.80;29.43;;;;;;;;;;4995445;28;20421;-67
2022/03/08 12:39:58;;;;;;;32.73;29.47;;;;;;;;;;4995735;28;20869;-67
2022/03/08 12:42:26;;;;;;;31.27;28.07;;;;;;;;;;4977692;28;20431;-68
2022/03/08 12:45:08;;;;;;;32.17;28.73;;;;;;;;;;4995403;28;20783;-66
2022/03/08 12:47:36;;;;;;;32.97;29.47;;;;;;;;;;4995650;28;20418;-67
2022/03/08 12:50:04;;;;;;;32.93;29.20;;;;;;;;;;4994683;28;20413;-67
2022/03/08 12:52:35;;;;;;;32.70;29.40;;;;;;;;;;4994844;28;20502;-68
2022/03/08 12:55:01;;;;;;;32.80;29.30;;;;;;;;;;4994772;28;20474;-67
2022/03/08 12:57:27;;;;;;;32.57;28.10;;;;;;;;;;4995126;28;20488;-67
2022/03/08 12:59:54;;;;;;;31.83;28.27;;;;;;;;;;4977884;28;20983;-68
2022/03/08 13:02:20;;;;;;;31.40;28.10;;;;;;;;;;4995407;28;20413;-66
2022/03/08 13:04:46;;;;;;;29.67;26.47;;;;;;;;;;4994801;28;20448;-67
2022/03/08 13:07:14;;;;;;;35.03;26.80;;;;;;;;;;4994571;28;20963;-68
2022/03/08 13:09:50;;;;;;;35.27;27.90;;;;;;;;;;4995042;28;20408;-67
2022/03/08 13:12:16;;;;;;;32.87;29.43;;;;;;;;;;4994853;28;20420;-67
2022/03/08 13:14:42;;;;;;;33.20;29.00;;;;;;;;;;4995038;28;20819;-67
2022/03/08 13:17:08;;;;;;;35.30;29.40;;;;;;;;;;4994761;28;20404;-66
2022/03/08 13:19:38;;;;;;;36.70;27.37;;;;;;;;;;4994505;28;20387;-66
2022/03/08 13:22:04;;;;;;;32.77;27.90;;;;;;;;;;4994867;28;20460;-67
2022/03/08 13:24:30;;;;;;;33.50;28.70;;;;;;;;;;4994687;28;20825;-66
2022/03/08 13:27:02;;;;;;;33.90;28.97;;;;;;;;;;4993979;28;20440;-66
2022/03/08 13:29:28;;;;;;;33.70;27.20;;;;;;;;;;4977197;28;20445;-67
2022/03/08 13:31:55;;;;;;;32.00;27.20;;;;;;;;;;4994086;28;20410;-67
2022/03/08 13:34:22;;;;;;;33.63;28.03;;;;;;;;;;4994688;28;20472;-68
2022/03/08 13:36:55;;;;;;;35.73;27.77;;;;;;;;;;4994075;28;20906;-67
2022/03/08 13:39:21;;;;;;;30.60;26.93;;;;;;;;;;4994332;28;20417;-67
2022/03/08 13:41:47;;;;;;;35.87;26.57;;;;;;;;;;4994495;28;20421;-65
2022/03/08 13:44:14;;;;;;;30.23;26.90;;;;;;;;;;4994448;28;20406;-66
2022/03/08 13:46:40;;;;;;;38.63;29.20;;;;;;;;;;4994516;28;20413;-66
2022/03/08 13:49:07;;;;;;;34.20;25.70;;;;;;;;;;4994264;28;20577;-65
2022/03/08 13:51:35;;;;;;;29.77;25.63;;;;;;;;;;4976864;28;20478;-66
2022/03/08 13:54:01;;;;;;;32.63;26.13;;;;;;;;;;4994469;28;20414;-67
2022/03/08 13:56:28;;;;;;;31.13;26.00;;;;;;;;;;4993888;28;20476;-66
2022/03/08 13:58:57;;;;;;;29.80;25.33;;;;;;;;;;4994223;28;20437;-66
2022/03/08 14:01:26;;;;;;;31.50;26.07;;;;;;;;;;4993955;28;20414;-67
2022/03/08 14:03:53;;;;;;;29.10;24.97;;;;;;;;;;4994022;28;20401;-67
2022/03/08 14:06:26;;;;;;;30.03;25.13;;;;;;;;;;4976596;28;20572;-68
2022/03/08 14:08:55;;;;;;;34.87;24.93;;;;;;;;;;4993960;28;20823;-68
2022/03/08 14:11:23;;;;;;;29.53;23.90;;;;;;;;;;4993572;28;20417;-67
2022/03/08 14:13:49;;;;;;;27.17;22.50;;;;;;;;;;4993728;28;20873;-67
2022/03/08 14:16:15;;;;;;;29.07;24.33;;;;;;;;;;4993881;28;20480;-67